createdAt,value
2023-05-23T00:01:54.874Z,21.27
2023-05-23T00:04:26.983Z,21.28
2023-05-23T00:06:55.681Z,21.28
2023-05-23T00:09:23.815Z,21.27
2023-05-23T00:11:53.128Z,21.28
2023-05-23T00:14:21.730Z,21.27
2023-05-23T00:16:50.161Z,21.27
2023-05-23T00:19:18.320Z,21.26
2023-05-23T00:21:49.783Z,21.26
2023-05-23T00:24:18.869Z,21.26
2023-05-23T00:26:47.360Z,21.26
2023-05-23T00:29:17.703Z,21.25
2023-05-23T00:31:46.805Z,21.25
2023-05-23T00:34:15.356Z,21.25
2023-05-23T00:36:43.754Z,21.24
2023-05-23T00:39:19.217Z,21.25
2023-05-23T00:41:51.094Z,21.24
2023-05-23T00:44:22.154Z,21.24
2023-05-23T00:46:54.696Z,21.24
2023-05-23T00:49:23.198Z,21.23
2023-05-23T00:51:52.043Z,21.24
2023-05-23T00:54:25.523Z,21.26
2023-05-23T00:56:54.286Z,21.23
2023-05-23T00:59:25.665Z,21.24
2023-05-23T01:01:56.142Z,21.21
2023-05-23T01:04:27.029Z,21.23
2023-05-23T01:06:56.240Z,21.23
2023-05-23T01:09:26.481Z,21.22
2023-05-23T01:12:05.039Z,21.23
2023-05-23T01:14:43.536Z,21.23
2023-05-23T01:17:17.883Z,21.21
2023-05-23T01:19:56.858Z,21.22
2023-05-23T01:22:40.485Z,21.20
2023-05-23T01:25:18.619Z,21.20
2023-05-23T01:27:54.150Z,21.19
2023-05-23T01:30:22.633Z,21.21
2023-05-23T01:32:52.717Z,21.19
2023-05-23T01:35:26.382Z,21.20
2023-05-23T01:37:54.606Z,21.20
2023-05-23T01:40:22.865Z,21.19
2023-05-23T01:42:53.251Z,21.18
2023-05-23T01:45:22.109Z,21.18
2023-05-23T01:47:52.096Z,21.19
2023-05-23T01:50:20.240Z,21.18
2023-05-23T01:52:48.706Z,21.18
2023-05-23T01:55:22.762Z,21.18
2023-05-23T01:57:53.270Z,21.16
2023-05-23T02:00:21.704Z,21.18
2023-05-23T02:02:52.864Z,21.17
2023-05-23T02:05:21.339Z,21.17
2023-05-23T02:07:52.110Z,21.17
2023-05-23T02:10:20.931Z,21.17
2023-05-23T02:12:52.576Z,21.16
2023-05-23T02:15:20.894Z,21.17
2023-05-23T02:17:49.701Z,21.16
2023-05-23T02:20:19.133Z,21.15
2023-05-23T02:22:47.786Z,21.17
2023-05-23T02:25:15.859Z,21.15
2023-05-23T02:27:44.092Z,21.14
2023-05-23T02:30:14.657Z,21.14
2023-05-23T02:32:42.799Z,21.14
2023-05-23T02:35:13.763Z,21.15
2023-05-23T02:37:41.723Z,21.15
2023-05-23T02:40:10.666Z,21.14
2023-05-23T02:42:38.711Z,21.13
2023-05-23T02:45:07.681Z,21.15
2023-05-23T02:47:37.038Z,21.14
2023-05-23T02:50:05.418Z,21.13
2023-05-23T02:52:33.703Z,21.13
2023-05-23T02:55:01.944Z,21.14
2023-05-23T02:57:29.939Z,21.14
2023-05-23T02:59:57.949Z,21.12
2023-05-23T03:02:26.003Z,21.12
2023-05-23T03:04:56.141Z,21.12
2023-05-23T03:07:28.220Z,21.12
2023-05-23T03:09:56.869Z,21.10
2023-05-23T03:12:24.878Z,21.12
2023-05-23T03:14:52.885Z,21.11
2023-05-23T03:17:21.136Z,21.12
2023-05-23T03:19:49.134Z,21.12
2023-05-23T03:22:18.534Z,21.11
2023-05-23T03:24:46.558Z,21.11
2023-05-23T03:27:14.710Z,21.11
2023-05-23T03:29:42.713Z,21.10
2023-05-23T03:32:10.700Z,21.11
2023-05-23T03:34:38.704Z,21.11
2023-05-23T03:37:06.692Z,21.10
2023-05-23T03:39:39.696Z,21.11
2023-05-23T03:42:10.355Z,21.09
2023-05-23T03:44:40.839Z,21.09
2023-05-23T03:47:09.947Z,21.10
2023-05-23T03:49:37.884Z,21.09
2023-05-23T03:52:05.853Z,21.09
2023-05-23T03:54:33.797Z,21.08
2023-05-23T03:57:03.157Z,21.09
2023-05-23T03:59:31.187Z,21.09
2023-05-23T04:02:00.445Z,21.09
2023-05-23T04:04:28.443Z,21.09
2023-05-23T04:06:58.104Z,21.09
2023-05-23T04:09:26.119Z,21.08
2023-05-23T04:11:54.064Z,21.07
2023-05-23T04:14:23.605Z,21.08
2023-05-23T04:16:51.589Z,21.07
2023-05-23T04:19:19.585Z,21.08
2023-05-23T04:21:47.594Z,21.07
2023-05-23T04:24:18.222Z,21.08
2023-05-23T04:26:46.419Z,21.08
2023-05-23T04:29:14.440Z,21.07
2023-05-23T04:31:46.020Z,21.07
2023-05-23T04:34:14.362Z,21.07
2023-05-23T04:36:44.703Z,21.07
2023-05-23T04:39:12.768Z,21.05
2023-05-23T04:41:40.965Z,21.08
2023-05-23T04:44:10.151Z,21.07
2023-05-23T04:46:42.034Z,21.05
2023-05-23T04:49:13.041Z,21.06
2023-05-23T04:51:41.471Z,21.06
2023-05-23T04:54:09.553Z,21.06
2023-05-23T04:56:37.568Z,21.05
2023-05-23T04:59:05.526Z,21.06
2023-05-23T05:01:34.578Z,21.05
2023-05-23T05:04:02.710Z,21.05
2023-05-23T05:06:32.459Z,21.04
2023-05-23T05:09:00.528Z,21.05
2023-05-23T05:11:28.628Z,21.04
2023-05-23T05:13:56.652Z,21.05
2023-05-23T05:16:24.732Z,21.04
2023-05-23T05:18:52.846Z,21.03
2023-05-23T05:21:20.778Z,21.03
2023-05-23T05:23:53.138Z,21.03
2023-05-23T05:26:21.563Z,21.04
2023-05-23T05:28:49.572Z,21.05
2023-05-23T05:31:17.754Z,21.02
2023-05-23T05:33:46.096Z,21.05
2023-05-23T05:36:14.291Z,21.03
2023-05-23T05:38:42.241Z,21.03
2023-05-23T05:41:11.632Z,21.03
2023-05-23T05:43:39.662Z,21.02
2023-05-23T05:46:07.962Z,21.02
2023-05-23T05:48:35.982Z,21.01
2023-05-23T05:51:04.297Z,21.02
2023-05-23T05:53:32.310Z,21.01
2023-05-23T05:56:01.016Z,21.01
2023-05-23T05:58:30.423Z,21.02
2023-05-23T06:00:59.198Z,21.02
2023-05-23T06:03:27.456Z,21.01
2023-05-23T06:05:55.683Z,21.01
2023-05-23T06:08:26.623Z,21.01
2023-05-23T06:10:54.657Z,21.00
2023-05-23T06:13:22.602Z,20.99
2023-05-23T06:15:52.025Z,21.00
2023-05-23T06:18:20.030Z,20.99
2023-05-23T06:20:48.025Z,21.00
2023-05-23T06:23:15.996Z,21.00
2023-05-23T06:25:44.025Z,20.99
2023-05-23T06:28:11.958Z,20.98
2023-05-23T06:30:40.535Z,20.99
2023-05-23T06:33:10.272Z,20.99
2023-05-23T06:35:38.412Z,20.99
2023-05-23T06:38:09.492Z,20.99
2023-05-23T06:40:37.482Z,20.97
2023-05-23T06:43:05.449Z,20.98
2023-05-23T06:45:35.161Z,20.97
2023-05-23T06:48:03.359Z,20.96
2023-05-23T06:50:32.720Z,20.97
2023-05-23T06:53:00.829Z,20.97
2023-05-23T06:55:28.779Z,20.98
2023-05-23T06:57:56.828Z,20.98
2023-05-23T07:00:26.628Z,20.98
2023-05-23T07:02:54.713Z,20.97
2023-05-23T07:05:22.886Z,20.97
2023-05-23T07:07:52.340Z,20.98
2023-05-23T07:10:20.868Z,20.98
2023-05-23T07:12:49.250Z,21.00
2023-05-23T07:15:17.407Z,21.01
2023-05-23T07:17:45.715Z,21.04
2023-05-23T07:20:13.697Z,21.05
2023-05-23T07:22:41.714Z,21.05
2023-05-23T07:25:11.659Z,21.08
2023-05-23T07:27:39.906Z,21.09
2023-05-23T07:30:09.860Z,21.09
2023-05-23T07:32:37.971Z,21.10
2023-05-23T07:35:06.676Z,21.10
2023-05-23T07:37:34.748Z,21.11
2023-05-23T07:40:02.785Z,21.12
2023-05-23T07:42:32.163Z,21.13
2023-05-23T07:45:00.159Z,21.14
2023-05-23T07:47:28.364Z,21.15
2023-05-23T07:49:59.299Z,21.15
2023-05-23T07:52:27.246Z,21.15
2023-05-23T07:54:55.168Z,21.16
2023-05-23T07:57:24.496Z,21.17
2023-05-23T07:59:54.496Z,21.18
2023-05-23T08:02:22.512Z,21.19
2023-05-23T08:04:51.069Z,21.20
2023-05-23T08:07:19.634Z,21.21
2023-05-23T08:09:50.342Z,21.21
2023-05-23T08:12:18.337Z,21.21
2023-05-23T08:14:51.543Z,21.21
2023-05-23T08:17:21.892Z,21.22
2023-05-23T08:19:51.248Z,21.21
2023-05-23T08:22:19.353Z,21.21
2023-05-23T08:24:47.377Z,21.22
2023-05-23T08:27:17.911Z,21.22
2023-05-23T08:29:46.471Z,21.24
2023-05-23T08:32:14.509Z,21.24
2023-05-23T08:34:44.061Z,21.22
2023-05-23T08:37:12.245Z,21.21
2023-05-23T08:39:40.232Z,21.21
2023-05-23T08:42:09.030Z,21.20
2023-05-23T08:44:37.121Z,21.20
2023-05-23T08:47:06.590Z,21.21
2023-05-23T08:49:35.125Z,21.21
2023-05-23T08:52:05.072Z,21.20
2023-05-23T08:54:34.125Z,21.19
2023-05-23T08:57:05.405Z,21.15
2023-05-23T08:59:35.834Z,21.13
2023-05-23T09:02:07.824Z,21.14
2023-05-23T09:04:36.340Z,21.16
2023-05-23T09:07:06.622Z,21.17
2023-05-23T09:09:34.770Z,21.18
2023-05-23T09:12:06.364Z,21.19
2023-05-23T09:14:34.375Z,21.19
2023-05-23T09:17:04.829Z,21.22
2023-05-23T09:19:33.552Z,21.21
2023-05-23T09:22:05.028Z,21.21
2023-05-23T09:24:37.023Z,21.19
2023-05-23T09:27:07.546Z,21.18
2023-05-23T09:29:39.096Z,21.18
2023-05-23T09:32:13.099Z,21.18
2023-05-23T09:34:56.240Z,21.19
2023-05-23T09:37:31.385Z,21.19
2023-05-23T09:40:00.994Z,21.18
2023-05-23T09:42:34.365Z,21.17
2023-05-23T09:45:04.622Z,21.18
2023-05-23T09:47:36.220Z,21.18
2023-05-23T09:50:05.072Z,21.17
2023-05-23T09:52:37.746Z,21.17
2023-05-23T09:55:06.657Z,21.18
2023-05-23T09:57:37.711Z,21.19
2023-05-23T10:00:07.405Z,21.18
2023-05-23T10:03:00.024Z,21.17
2023-05-23T10:05:35.372Z,21.17
2023-05-23T10:08:10.782Z,21.17
2023-05-23T10:11:23.145Z,21.18
2023-05-23T10:13:53.283Z,21.18
2023-05-23T10:16:28.341Z,21.19
2023-05-23T10:18:59.177Z,21.21
2023-05-23T10:21:33.139Z,21.24
2023-05-23T10:24:04.854Z,21.26
2023-05-23T10:26:33.128Z,21.27
2023-05-23T10:29:02.417Z,21.27
2023-05-23T10:31:31.321Z,21.28
2023-05-23T10:34:07.423Z,21.28
2023-05-23T10:36:44.790Z,21.30
2023-05-23T10:39:23.983Z,21.31
2023-05-23T10:41:57.662Z,21.31
2023-05-23T10:44:30.153Z,21.30
2023-05-23T10:47:02.679Z,21.30
2023-05-23T10:49:39.700Z,21.31
2023-05-23T10:52:08.456Z,21.30
2023-05-23T10:54:38.354Z,21.30
2023-05-23T10:57:11.882Z,21.32
2023-05-23T10:59:40.627Z,21.31
2023-05-23T11:02:15.795Z,21.29
2023-05-23T11:04:44.453Z,21.28
2023-05-23T11:07:30.684Z,21.29
2023-05-23T11:10:15.197Z,21.26
2023-05-23T11:12:44.639Z,21.20
2023-05-23T11:15:42.899Z,21.17
2023-05-23T11:18:12.062Z,21.17
2023-05-23T11:20:47.679Z,21.16
2023-05-23T11:23:16.081Z,21.18
2023-05-23T11:25:46.933Z,21.19
2023-05-23T11:28:15.567Z,21.19
2023-05-23T11:30:44.015Z,21.20
2023-05-23T11:33:15.045Z,21.21
2023-05-23T11:35:47.995Z,21.22
2023-05-23T11:38:16.855Z,21.23
2023-05-23T11:40:47.650Z,21.25
2023-05-23T11:43:17.978Z,21.26
2023-05-23T11:45:47.530Z,21.27
2023-05-23T11:48:17.842Z,21.27
2023-05-23T11:50:48.388Z,21.27
2023-05-23T11:53:18.638Z,21.28
2023-05-23T11:55:55.507Z,21.29
2023-05-23T11:58:24.123Z,21.30
2023-05-23T12:00:55.088Z,21.31
2023-05-23T12:03:23.703Z,21.31
2023-05-23T12:05:51.835Z,21.31
2023-05-23T12:08:19.828Z,21.33
2023-05-23T12:10:54.720Z,21.32
2023-05-23T12:13:26.256Z,21.33
2023-05-23T12:15:58.713Z,21.32
2023-05-23T12:18:30.238Z,21.33
2023-05-23T12:21:03.160Z,21.33
2023-05-23T12:23:34.553Z,21.34
2023-05-23T12:26:07.099Z,21.34
2023-05-23T12:28:38.624Z,21.35
2023-05-23T12:31:13.666Z,21.35
2023-05-23T12:33:44.097Z,21.35
2023-05-23T12:40:35.748Z,21.36
2023-05-23T12:43:05.243Z,21.38
2023-05-23T12:45:34.449Z,21.38
2023-05-23T12:48:06.118Z,21.39
2023-05-23T12:50:34.617Z,21.38
2023-05-23T12:53:03.050Z,21.41
2023-05-23T12:55:31.189Z,21.38
2023-05-23T12:57:59.652Z,21.38
2023-05-23T13:00:29.525Z,21.35
2023-05-23T13:02:58.058Z,21.36
2023-05-23T13:05:27.620Z,21.28
2023-05-23T13:07:56.220Z,21.30
2023-05-23T13:10:24.770Z,21.32
2023-05-23T13:12:53.836Z,21.34
2023-05-23T13:15:22.169Z,21.34
2023-05-23T13:17:52.354Z,21.36
2023-05-23T13:20:20.741Z,21.37
2023-05-23T13:22:49.317Z,21.38
2023-05-23T13:25:20.270Z,21.37
2023-05-23T13:27:49.401Z,21.38
2023-05-23T13:30:18.175Z,21.37
2023-05-23T13:32:46.865Z,21.41
2023-05-23T13:35:19.811Z,21.40
2023-05-23T13:37:48.198Z,21.40
2023-05-23T13:40:19.948Z,21.41
2023-05-23T13:42:52.116Z,21.42
2023-05-23T13:45:22.814Z,21.42
2023-05-23T13:47:51.436Z,21.43
2023-05-23T13:50:21.253Z,21.44
2023-05-23T13:52:49.787Z,21.45
2023-05-23T13:55:20.052Z,21.44
2023-05-23T13:57:48.493Z,21.44
2023-05-23T14:00:17.464Z,21.42
2023-05-23T14:02:45.601Z,21.41
2023-05-23T14:05:15.956Z,21.40
2023-05-23T14:07:47.337Z,21.39
2023-05-23T14:10:17.542Z,21.39
2023-05-23T14:12:46.038Z,21.37
2023-05-23T14:15:14.513Z,21.37
2023-05-23T14:17:42.657Z,21.36
2023-05-23T14:20:11.529Z,21.34
2023-05-23T14:22:40.226Z,21.35
2023-05-23T14:25:11.060Z,21.35
2023-05-23T14:27:40.227Z,21.33
2023-05-23T14:30:09.723Z,21.33
2023-05-23T14:32:39.240Z,21.33
2023-05-23T14:35:08.987Z,21.34
2023-05-23T14:37:37.371Z,21.35
2023-05-23T14:40:06.883Z,21.37
2023-05-23T14:42:36.715Z,21.38
2023-05-23T14:45:05.012Z,21.40
2023-05-23T14:47:37.574Z,21.42
2023-05-23T14:50:06.782Z,21.45
2023-05-23T14:52:34.987Z,21.46
2023-05-23T14:55:03.450Z,21.41
2023-05-23T14:57:31.505Z,21.36
2023-05-23T15:00:05.924Z,21.30
2023-05-23T15:02:34.505Z,21.24
2023-05-23T15:05:03.010Z,21.21
2023-05-23T15:07:32.340Z,21.16
2023-05-23T15:10:00.394Z,21.14
2023-05-23T15:12:29.231Z,21.16
2023-05-23T15:15:03.561Z,21.11
2023-05-23T15:17:34.424Z,21.09
2023-05-23T15:20:06.057Z,21.11
2023-05-23T15:22:39.778Z,21.15
2023-05-23T15:25:09.472Z,21.18
2023-05-23T15:27:38.067Z,21.20
2023-05-23T15:30:08.275Z,21.25
2023-05-23T15:32:38.480Z,21.28
2023-05-23T15:35:08.194Z,21.30
2023-05-23T15:37:36.322Z,21.29
2023-05-23T15:40:05.303Z,21.29
2023-05-23T15:42:33.752Z,21.22
2023-05-23T15:45:02.198Z,21.17
2023-05-23T15:47:30.447Z,21.11
2023-05-23T15:50:02.376Z,21.09
2023-05-23T15:52:30.715Z,21.11
2023-05-23T15:54:58.941Z,21.13
2023-05-23T15:57:27.362Z,21.16
2023-05-23T15:59:55.503Z,21.18
2023-05-23T16:02:24.099Z,21.19
2023-05-23T16:04:52.225Z,21.22
2023-05-23T16:07:21.886Z,21.23
2023-05-23T16:09:50.187Z,21.25
2023-05-23T16:12:21.601Z,21.26
2023-05-23T16:14:51.268Z,21.26
2023-05-23T16:17:22.189Z,21.26
2023-05-23T16:19:50.362Z,21.29
2023-05-23T16:22:18.593Z,21.29
2023-05-23T16:24:48.301Z,21.31
2023-05-23T16:27:16.607Z,21.32
2023-05-23T16:29:44.759Z,21.32
2023-05-23T16:32:13.257Z,21.31
2023-05-23T16:34:41.512Z,21.32
2023-05-23T16:37:11.354Z,21.31
2023-05-23T16:39:40.322Z,21.31
2023-05-23T16:42:09.925Z,21.29
2023-05-23T16:44:38.822Z,21.30
2023-05-23T16:47:07.231Z,21.29
2023-05-23T16:49:37.137Z,21.29
2023-05-23T16:52:07.412Z,21.29
2023-05-23T16:54:36.633Z,21.27
2023-05-23T16:57:07.747Z,21.27
2023-05-23T16:59:37.857Z,21.26
2023-05-23T17:02:07.952Z,21.25
2023-05-23T17:04:38.782Z,21.25
2023-05-23T17:07:08.663Z,21.24
2023-05-23T17:09:37.314Z,21.23
2023-05-23T17:12:06.854Z,21.23
2023-05-23T17:14:35.217Z,21.23
2023-05-23T17:17:08.121Z,21.23
2023-05-23T17:19:36.939Z,21.23
2023-05-23T17:22:08.106Z,21.22
2023-05-23T17:24:36.595Z,21.21
2023-05-23T17:27:05.358Z,21.22
2023-05-23T17:29:33.757Z,21.23
2023-05-23T17:32:02.632Z,21.22
2023-05-23T17:34:32.393Z,21.22
2023-05-23T17:37:03.214Z,21.22
2023-05-23T17:39:32.940Z,21.21
2023-05-23T17:42:02.282Z,21.21
2023-05-23T17:44:30.798Z,21.21
2023-05-23T17:46:58.974Z,21.21
2023-05-23T17:49:27.346Z,21.19
2023-05-23T17:51:57.806Z,21.20
2023-05-23T17:54:28.826Z,21.19
2023-05-23T17:56:57.261Z,21.20
2023-05-23T17:59:27.881Z,21.18
2023-05-23T18:01:56.409Z,21.19
2023-05-23T18:04:26.044Z,21.19
2023-05-23T18:06:54.107Z,21.18
2023-05-23T18:09:24.442Z,21.16
2023-05-23T18:11:53.453Z,21.18
2023-05-23T18:14:21.929Z,21.17
2023-05-23T18:16:50.303Z,21.17
2023-05-23T18:19:18.460Z,21.16
2023-05-23T18:21:48.357Z,21.15
2023-05-23T18:24:17.108Z,21.15
2023-05-23T18:26:49.663Z,21.15
2023-05-23T18:29:20.082Z,21.13
2023-05-23T18:31:48.395Z,21.12
2023-05-23T18:34:16.930Z,21.11
2023-05-23T18:36:45.879Z,21.12
2023-05-23T18:39:14.104Z,21.11
2023-05-23T18:41:43.223Z,21.10
2023-05-23T18:44:13.764Z,21.08
2023-05-23T18:46:42.618Z,21.08
2023-05-23T18:49:11.563Z,21.07
2023-05-23T18:51:39.865Z,21.05
2023-05-23T18:54:09.628Z,21.05
2023-05-23T18:56:38.970Z,21.05
2023-05-23T18:59:07.848Z,21.04
2023-05-23T19:01:39.358Z,21.05
2023-05-23T19:04:14.018Z,21.06
2023-05-23T19:06:42.112Z,21.04
2023-05-23T19:09:12.853Z,21.01
2023-05-23T19:11:45.583Z,20.96
2023-05-23T19:14:16.168Z,20.95
2023-05-23T19:16:46.456Z,20.95
2023-05-23T19:19:15.823Z,20.94
2023-05-23T19:21:47.453Z,20.96
2023-05-23T19:24:15.960Z,20.96
2023-05-23T19:26:46.096Z,20.95
2023-05-23T19:29:16.044Z,20.95
2023-05-23T19:31:46.339Z,20.92
2023-05-23T19:34:16.982Z,20.94
2023-05-23T19:36:47.918Z,20.94
2023-05-23T19:39:16.455Z,20.91
2023-05-23T19:41:44.696Z,20.92
2023-05-23T19:44:13.430Z,20.92
2023-05-23T19:46:43.729Z,20.93
2023-05-23T19:49:17.321Z,20.94
2023-05-23T19:51:46.225Z,20.94
2023-05-23T19:54:15.572Z,20.95
2023-05-23T19:56:43.722Z,20.94
2023-05-23T19:59:14.754Z,20.94
2023-05-23T20:01:43.638Z,20.92
2023-05-23T20:04:13.256Z,20.91
2023-05-23T20:06:46.067Z,20.91
2023-05-23T20:09:18.072Z,20.91
2023-05-23T20:11:46.646Z,20.91
2023-05-23T20:14:17.841Z,20.91
2023-05-23T20:16:47.553Z,20.91
2023-05-23T20:19:18.972Z,20.90
2023-05-23T20:21:56.712Z,20.90
2023-05-23T20:24:30.882Z,20.90
2023-05-23T20:26:58.992Z,20.91
2023-05-23T20:29:27.674Z,20.90
2023-05-23T20:31:56.650Z,20.90
2023-05-23T20:34:27.410Z,20.88
2023-05-23T20:36:55.886Z,20.88
2023-05-23T20:39:24.407Z,20.86
2023-05-23T20:41:53.654Z,20.87
2023-05-23T20:44:23.093Z,20.86
2023-05-23T20:46:53.038Z,20.86
2023-05-23T20:49:21.089Z,20.85
2023-05-23T20:51:52.253Z,20.85
2023-05-23T20:54:21.483Z,20.84
2023-05-23T20:56:52.499Z,20.83
2023-05-23T20:59:26.017Z,20.83
2023-05-23T21:01:54.690Z,20.82
2023-05-23T21:04:25.326Z,20.82
2023-05-23T21:06:55.038Z,20.81
2023-05-23T21:09:25.195Z,20.82
2023-05-23T21:11:54.202Z,20.81
2023-05-23T21:14:22.610Z,20.80
2023-05-23T21:16:51.712Z,20.79
2023-05-23T21:19:22.817Z,20.79
2023-05-23T21:21:53.785Z,20.77
2023-05-23T21:24:24.508Z,20.77
2023-05-23T21:26:53.799Z,20.77
2023-05-23T21:29:21.932Z,20.78
2023-05-23T21:31:50.556Z,20.78
2023-05-23T21:34:23.919Z,20.76
2023-05-23T21:36:53.287Z,20.75
2023-05-23T21:39:25.282Z,20.75
2023-05-23T21:41:54.553Z,20.76
2023-05-23T21:44:23.228Z,20.74
2023-05-23T21:46:51.707Z,20.73
2023-05-23T21:49:20.044Z,20.73
2023-05-23T21:51:51.228Z,20.72
2023-05-23T21:54:19.601Z,20.72
2023-05-23T21:56:54.423Z,20.72
2023-05-23T21:59:22.738Z,20.72
2023-05-23T22:01:50.964Z,20.69
2023-05-23T22:04:20.251Z,20.72
2023-05-23T22:06:48.767Z,20.69
2023-05-23T22:09:17.114Z,20.70
2023-05-23T22:11:45.888Z,20.69
2023-05-23T22:14:15.738Z,20.68
2023-05-23T22:16:44.062Z,20.68
2023-05-23T22:19:12.817Z,20.66
2023-05-23T22:21:41.394Z,20.67
2023-05-23T22:24:09.696Z,20.67
2023-05-23T22:26:39.309Z,20.66
2023-05-23T22:29:07.507Z,20.65
2023-05-23T22:31:37.051Z,20.65
2023-05-23T22:34:05.073Z,20.66
2023-05-23T22:36:33.508Z,20.65
2023-05-23T22:39:05.438Z,20.64
2023-05-23T22:41:34.515Z,20.63
2023-05-23T22:44:02.498Z,20.63
2023-05-23T22:46:30.647Z,20.63
2023-05-23T22:49:00.383Z,20.63
2023-05-23T22:51:29.373Z,20.61
2023-05-23T22:53:57.459Z,20.63
2023-05-23T22:56:25.602Z,20.61
2023-05-23T22:58:53.855Z,20.61
2023-05-23T23:01:21.844Z,20.62
2023-05-23T23:03:49.862Z,20.61
2023-05-23T23:06:22.089Z,20.60
2023-05-23T23:08:50.578Z,20.60
2023-05-23T23:11:18.843Z,20.59
2023-05-23T23:13:46.990Z,20.59
2023-05-23T23:16:15.002Z,20.58
2023-05-23T23:18:45.587Z,20.57
2023-05-23T23:21:13.780Z,20.58
2023-05-23T23:23:43.573Z,20.58
2023-05-23T23:26:11.667Z,20.55
2023-05-23T23:28:39.607Z,20.55
2023-05-23T23:31:07.664Z,20.54
2023-05-23T23:33:35.689Z,20.54
2023-05-23T23:36:03.638Z,20.54
2023-05-23T23:38:31.692Z,20.54
2023-05-23T23:41:01.015Z,20.53
2023-05-23T23:43:30.038Z,20.53
2023-05-23T23:45:58.132Z,20.53
2023-05-23T23:48:26.111Z,20.52
2023-05-23T23:50:54.110Z,20.51
2023-05-23T23:53:22.489Z,20.52
2023-05-23T23:55:51.043Z,20.50
2023-05-23T23:58:20.452Z,20.50
